Time;durP1;ratioP1;P1;durP2;ratioP2;P2;SDS_P1;SDS_P2;PMS_P1;PMS_P2;Temp;Humidity;BMP_temperature;BMP_pressure;BME280_temperature;BME280_humidity;BME280_pressure;Samples;Min_cycle;Max_cycle;Signal;HPM_P1;HPM_P2
2022/09/18 00:01:34;;;;;;;;;;;;;;;25.43;46.39;99128.71;104523;1309;61535;-83
2022/09/18 00:04:00;;;;;;;;;;;;;;;25.43;46.54;99134.16;104495;1309;61313;-84
2022/09/18 00:06:28;;;;;;;;;;;;;;;25.42;46.61;99147.33;104635;1309;61861;-84
2022/09/18 00:08:54;;;;;;;;;;;;;;;25.43;46.47;99148.36;104581;1308;61160;-84
2022/09/18 00:11:20;;;;;;;;;;;;;;;25.43;46.71;99141.92;104525;1309;61153;-85
2022/09/18 00:13:46;;;;;;;;;;;;;;;25.43;46.72;99140.48;104613;1309;61366;-83
2022/09/18 00:16:12;;;;;;;;;;;;;;;25.43;46.56;99141.89;104475;1311;61268;-82
2022/09/18 00:18:38;;;;;;;;;;;;;;;25.42;46.60;99146.08;104507;1310;61156;-84
2022/09/18 00:21:07;;;;;;;;;;;;;;;25.42;46.57;99147.73;104461;1311;61989;-83
2022/09/18 00:23:33;;;;;;;;;;;;;;;25.42;46.51;99143.05;104446;1311;74664;-84
2022/09/18 00:26:00;;;;;;;;;;;;;;;25.42;46.55;99144.48;104483;1311;61325;-85
2022/09/18 00:28:25;;;;;;;;;;;;;;;25.42;46.72;99139.45;104446;1310;61320;-84
2022/09/18 00:30:52;;;;;;;;;;;;;;;25.42;46.59;99140.00;104454;1311;61274;-83
2022/09/18 00:33:20;;;;;;;;;;;;;;;25.42;46.75;99138.38;104466;1309;61378;-83
2022/09/18 00:35:45;;;;;;;;;;;;;;;25.42;46.69;99134.98;104485;1310;61224;-83
2022/09/18 00:38:11;;;;;;;;;;;;;;;25.42;46.66;99131.36;104462;1311;61412;-85
2022/09/18 00:40:36;;;;;;;;;;;;;;;25.42;46.58;99133.01;104421;1310;61424;-84
2022/09/18 00:43:21;;;;;;;;;;;;;;;25.42;46.60;99136.42;104476;1311;61356;-83
2022/09/18 00:45:54;;;;;;;;;;;;;;;25.41;46.85;99138.96;104450;1311;61391;-83
2022/09/18 00:48:20;;;;;;;;;;;;;;;25.41;46.61;99134.87;104506;1309;61753;-83
2022/09/18 00:50:46;;;;;;;;;;;;;;;25.42;46.56;99134.83;104471;1311;61263;-85
2022/09/18 00:53:11;;;;;;;;;;;;;;;25.41;46.73;99133.62;104473;1309;61312;-85
2022/09/18 00:55:37;;;;;;;;;;;;;;;25.41;46.68;99134.86;104468;1309;61445;-82
2022/09/18 00:58:03;;;;;;;;;;;;;;;25.41;46.65;99140.48;104483;1310;61154;-83
2022/09/18 01:00:28;;;;;;;;;;;;;;;25.41;46.73;99141.86;104438;1310;61278;-84
2022/09/18 01:02:54;;;;;;;;;;;;;;;25.42;46.66;99147.97;104444;1310;61390;-85
2022/09/18 01:05:39;;;;;;;;;;;;;;;25.41;46.61;99152.91;104440;1311;59303;-85
2022/09/18 01:08:34;;;;;;;;;;;;;;;25.41;46.83;99155.98;104462;1310;61170;-83
2022/09/18 01:11:07;;;;;;;;;;;;;;;25.41;46.73;99159.72;104377;1310;61166;-83
2022/09/18 01:13:33;;;;;;;;;;;;;;;25.41;46.82;99170.54;104463;1309;74106;-83
2022/09/18 01:16:08;;;;;;;;;;;;;;;25.41;46.72;99169.69;104499;1308;61275;-82
2022/09/18 01:18:51;;;;;;;;;;;;;;;25.41;46.83;99175.42;104365;1309;61126;-83
2022/09/18 01:21:19;;;;;;;;;;;;;;;25.41;46.82;99173.95;104515;1309;61277;-83
2022/09/18 01:23:58;;;;;;;;;;;;;;;25.41;46.91;99173.94;104511;1310;72812;-85
2022/09/18 01:26:42;;;;;;;;;;;;;;;25.41;46.94;99176.65;104455;1308;74787;-83
2022/09/18 01:29:07;;;;;;;;;;;;;;;25.41;46.85;99167.65;104618;1308;61337;-83
2022/09/18 01:31:37;;;;;;;;;;;;;;;25.41;46.74;99161.75;104528;1308;61433;-84
2022/09/18 01:34:08;;;;;;;;;;;;;;;25.41;46.92;99167.88;104511;1309;73637;-83
2022/09/18 01:36:34;;;;;;;;;;;;;;;25.41;46.73;99177.23;104556;1308;74787;-82
2022/09/18 01:39:06;;;;;;;;;;;;;;;25.41;46.78;99188.39;104518;1309;61413;-87
2022/09/18 01:41:32;;;;;;;;;;;;;;;25.41;46.80;99201.55;104637;1309;61077;-83
2022/09/18 01:43:59;;;;;;;;;;;;;;;25.41;46.84;99205.30;104506;1309;61432;-84
2022/09/18 01:46:24;;;;;;;;;;;;;;;25.41;46.71;99211.48;104506;1309;61352;-85
2022/09/18 01:49:11;;;;;;;;;;;;;;;25.41;46.83;99210.91;104606;1309;61359;-82
2022/09/18 01:51:39;;;;;;;;;;;;;;;25.40;46.75;99220.50;104470;1309;61693;-85
2022/09/18 01:54:06;;;;;;;;;;;;;;;25.41;46.75;99225.33;104452;1309;72949;-83
2022/09/18 01:56:36;;;;;;;;;;;;;;;25.40;47.06;99225.04;104438;1310;73393;-83
2022/09/18 01:59:03;;;;;;;;;;;;;;;25.40;46.86;99232.77;104455;1309;61146;-84
2022/09/18 02:01:28;;;;;;;;;;;;;;;25.41;46.79;99233.96;104463;1309;61925;-84
2022/09/18 02:03:55;;;;;;;;;;;;;;;25.40;46.88;99239.98;104442;1309;61319;-84
2022/09/18 02:06:47;;;;;;;;;;;;;;;25.40;46.77;99246.98;104520;1309;61404;-83
2022/09/18 02:09:13;;;;;;;;;;;;;;;25.40;46.79;99258.06;104330;1308;61058;-82
2022/09/18 02:11:40;;;;;;;;;;;;;;;25.40;46.87;99260.92;104456;1309;62265;-81
2022/09/18 02:14:13;;;;;;;;;;;;;;;25.40;46.86;99259.86;104482;1309;61781;-84
2022/09/18 02:16:46;;;;;;;;;;;;;;;25.39;46.84;99265.08;104337;1309;74726;-83
2022/09/18 02:19:22;;;;;;;;;;;;;;;25.40;46.83;99273.90;104490;1309;61303;-84
2022/09/18 02:21:47;;;;;;;;;;;;;;;25.40;46.79;99276.60;104659;1309;61143;-85
2022/09/18 02:24:13;;;;;;;;;;;;;;;25.39;46.74;99267.44;104519;1309;61276;-84
2022/09/18 02:26:40;;;;;;;;;;;;;;;25.39;46.73;99282.04;104566;1308;61294;-83
2022/09/18 02:29:06;;;;;;;;;;;;;;;25.40;46.73;99295.14;104534;1309;61157;-84
2022/09/18 02:31:31;;;;;;;;;;;;;;;25.40;46.85;99297.87;104410;1309;61314;-84
2022/09/18 02:33:57;;;;;;;;;;;;;;;25.39;46.83;99298.45;104545;1308;61412;-83
2022/09/18 02:36:28;;;;;;;;;;;;;;;25.39;46.98;99313.37;104653;1309;61261;-84
2022/09/18 02:38:57;;;;;;;;;;;;;;;25.39;46.79;99306.58;104503;1309;73776;-84
2022/09/18 02:41:35;;;;;;;;;;;;;;;25.39;46.95;99303.67;104662;1309;61289;-84
2022/09/18 02:44:11;;;;;;;;;;;;;;;25.39;46.91;99316.10;104649;1309;61579;-85
2022/09/18 02:46:40;;;;;;;;;;;;;;;25.39;46.90;99317.59;104618;1309;72394;-83
2022/09/18 02:49:11;;;;;;;;;;;;;;;25.39;46.74;99323.00;104464;1308;76403;-83
2022/09/18 02:51:41;;;;;;;;;;;;;;;25.39;46.86;99321.84;104634;1309;61806;-85
2022/09/18 02:54:16;;;;;;;;;;;;;;;25.39;46.86;99324.04;104625;1309;61160;-83
2022/09/18 02:56:41;;;;;;;;;;;;;;;25.39;46.79;99322.99;104527;1309;73769;-84
2022/09/18 02:59:13;;;;;;;;;;;;;;;25.38;46.88;99333.09;104520;1308;61300;-84
2022/09/18 03:01:40;;;;;;;;;;;;;;;25.39;46.72;99334.54;104542;1309;61385;-83
2022/09/18 03:04:09;;;;;;;;;;;;;;;25.38;46.85;99338.55;104415;1309;61409;-83
2022/09/18 03:06:35;;;;;;;;;;;;;;;25.38;46.76;99335.14;104525;1309;74149;-83
2022/09/18 03:09:01;;;;;;;;;;;;;;;25.38;46.77;99329.74;104453;1308;61923;-83
2022/09/18 03:11:27;;;;;;;;;;;;;;;25.38;46.73;99329.73;104533;1310;61300;-83
2022/09/18 03:13:52;;;;;;;;;;;;;;;25.37;46.74;99330.52;104492;1309;61393;-83
2022/09/18 03:16:18;;;;;;;;;;;;;;;25.37;46.74;99347.98;104458;1311;61440;-82
2022/09/18 03:18:43;;;;;;;;;;;;;;;25.37;46.80;99350.89;104472;1311;61289;-83
2022/09/18 03:21:10;;;;;;;;;;;;;;;25.37;46.82;99356.46;104442;1311;75816;-88
2022/09/18 03:23:35;;;;;;;;;;;;;;;25.37;46.60;99349.46;104515;1310;61339;-84
2022/09/18 03:26:01;;;;;;;;;;;;;;;25.37;46.72;99352.33;104442;1311;61294;-84
2022/09/18 03:28:29;;;;;;;;;;;;;;;25.36;46.75;99360.02;104453;1311;61428;-84
2022/09/18 03:30:55;;;;;;;;;;;;;;;25.36;46.55;99381.24;104425;1311;74851;-82
2022/09/18 03:33:21;;;;;;;;;;;;;;;25.37;46.79;99402.45;104446;1311;61419;-85
2022/09/18 03:35:47;;;;;;;;;;;;;;;25.37;46.68;99412.91;104471;1311;61191;-83
2022/09/18 03:38:13;;;;;;;;;;;;;;;25.36;46.84;99421.60;104484;1310;61272;-84
2022/09/18 03:40:41;;;;;;;;;;;;;;;25.36;46.75;99428.33;104434;1311;61372;-84
2022/09/18 03:43:07;;;;;;;;;;;;;;;25.36;46.64;99438.01;104485;1311;61314;-84
2022/09/18 03:45:33;;;;;;;;;;;;;;;25.36;46.64;99437.52;104447;1311;61227;-83
2022/09/18 03:47:58;;;;;;;;;;;;;;;25.36;46.57;99436.76;104524;1310;61413;-83
2022/09/18 03:50:24;;;;;;;;;;;;;;;25.36;46.67;99437.17;104477;1309;61414;-83
2022/09/18 03:52:49;;;;;;;;;;;;;;;25.35;46.61;99429.09;104500;1311;61364;-83
2022/09/18 03:55:15;;;;;;;;;;;;;;;25.35;46.80;99442.60;104448;1311;61278;-82
2022/09/18 03:57:44;;;;;;;;;;;;;;;25.35;46.62;99451.63;104461;1311;60399;-83
2022/09/18 04:00:12;;;;;;;;;;;;;;;25.35;46.60;99475.95;104470;1310;72799;-84
2022/09/18 04:02:38;;;;;;;;;;;;;;;25.34;46.63;99476.52;104460;1310;74814;-83
2022/09/18 04:05:04;;;;;;;;;;;;;;;25.35;46.61;99485.88;104539;1311;61295;-85
2022/09/18 04:07:29;;;;;;;;;;;;;;;25.35;46.73;99491.29;104549;1310;61232;-84
2022/09/18 04:09:55;;;;;;;;;;;;;;;25.35;46.66;99501.02;104434;1311;61382;-85
2022/09/18 04:12:21;;;;;;;;;;;;;;;25.35;46.46;99515.39;104478;1310;61308;-83
2022/09/18 04:14:46;;;;;;;;;;;;;;;25.35;46.73;99534.33;104505;1309;74656;-83
2022/09/18 04:17:11;;;;;;;;;;;;;;;25.35;46.78;99534.31;104465;1309;61363;-81
2022/09/18 04:19:37;;;;;;;;;;;;;;;25.34;46.61;99533.46;104454;1309;61344;-82
2022/09/18 04:22:03;;;;;;;;;;;;;;;25.34;46.63;99538.86;104434;1309;61389;-82
2022/09/18 04:24:30;;;;;;;;;;;;;;;25.34;46.66;99555.23;104461;1309;61285;-83
2022/09/18 04:26:56;;;;;;;;;;;;;;;25.34;46.70;99557.42;104615;1309;61381;-83
2022/09/18 04:29:21;;;;;;;;;;;;;;;25.34;46.62;99560.45;104562;1309;61275;-83
2022/09/18 04:31:47;;;;;;;;;;;;;;;25.34;46.47;99568.23;104529;1308;61318;-83
2022/09/18 04:34:12;;;;;;;;;;;;;;;25.34;46.45;99584.98;104462;1309;61719;-84
2022/09/18 04:36:40;;;;;;;;;;;;;;;25.34;46.59;99593.78;104536;1309;61161;-86
2022/09/18 04:39:05;;;;;;;;;;;;;;;25.34;46.41;99600.27;104549;1308;61320;-84
2022/09/18 04:41:31;;;;;;;;;;;;;;;25.34;46.52;99607.87;104560;1309;61355;-83
2022/09/18 04:43:56;;;;;;;;;;;;;;;25.34;46.56;99626.58;104377;1309;61320;-85
2022/09/18 04:46:22;;;;;;;;;;;;;;;25.35;46.59;99624.55;104555;1308;61271;-84
2022/09/18 04:48:48;;;;;;;;;;;;;;;25.34;46.55;99623.36;104504;1309;74651;-83
2022/09/18 04:51:14;;;;;;;;;;;;;;;25.34;46.53;99624.99;104535;1308;61191;-83
2022/09/18 04:53:40;;;;;;;;;;;;;;;25.34;46.40;99628.70;104541;1309;61426;-83
2022/09/18 04:56:07;;;;;;;;;;;;;;;25.34;46.60;99625.15;104534;1309;61317;-84
2022/09/18 04:58:34;;;;;;;;;;;;;;;25.35;46.51;99632.50;104485;1309;61344;-84
2022/09/18 05:01:00;;;;;;;;;;;;;;;25.34;46.49;99641.91;104542;1309;61400;-83
2022/09/18 05:03:25;;;;;;;;;;;;;;;25.34;46.58;99652.31;104429;1309;61250;-83
2022/09/18 05:05:51;;;;;;;;;;;;;;;25.34;46.38;99652.71;104524;1309;61290;-84
2022/09/18 05:08:16;;;;;;;;;;;;;;;25.34;46.47;99660.48;104463;1309;61272;-83
2022/09/18 05:10:42;;;;;;;;;;;;;;;25.34;46.54;99661.69;104597;1309;61355;-83
2022/09/18 05:13:07;;;;;;;;;;;;;;;25.34;46.34;99667.10;104412;1309;61315;-84
2022/09/18 05:15:33;;;;;;;;;;;;;;;25.34;46.55;99667.23;104633;1307;61285;-84
2022/09/18 05:17:59;;;;;;;;;;;;;;;25.34;46.42;99669.42;104470;1309;61938;-83
2022/09/18 05:20:25;;;;;;;;;;;;;;;25.34;46.36;99664.05;104435;1308;61277;-84
2022/09/18 05:22:50;;;;;;;;;;;;;;;25.34;46.53;99668.01;104458;1309;61484;-84
2022/09/18 05:25:16;;;;;;;;;;;;;;;25.34;46.20;99671.41;104578;1309;61409;-83
2022/09/18 05:27:41;;;;;;;;;;;;;;;25.34;46.41;99671.58;104528;1309;61401;-84
2022/09/18 05:30:09;;;;;;;;;;;;;;;25.34;46.27;99678.11;104464;1309;61342;-83
2022/09/18 05:32:35;;;;;;;;;;;;;;;25.34;46.41;99684.76;104502;1309;75167;-83
2022/09/18 05:35:01;;;;;;;;;;;;;;;25.34;46.47;99682.27;104482;1309;61437;-81
2022/09/18 05:37:26;;;;;;;;;;;;;;;25.33;46.29;99683.36;104437;1308;61388;-83
2022/09/18 05:39:51;;;;;;;;;;;;;;;25.34;46.26;99688.20;104465;1308;61365;-83
2022/09/18 05:42:17;;;;;;;;;;;;;;;25.34;46.13;99685.64;104512;1309;61404;-84
2022/09/18 05:44:42;;;;;;;;;;;;;;;25.34;46.11;99698.26;104496;1308;61263;-84
2022/09/18 05:47:09;;;;;;;;;;;;;;;25.34;46.28;99703.86;104543;1309;61301;-84
2022/09/18 05:49:34;;;;;;;;;;;;;;;25.34;46.46;99705.11;104478;1308;59286;-85
2022/09/18 05:52:00;;;;;;;;;;;;;;;25.34;46.10;99708.16;104468;1308;61396;-84
2022/09/18 05:54:25;;;;;;;;;;;;;;;25.34;46.17;99715.78;104438;1309;61310;-83
2022/09/18 05:56:52;;;;;;;;;;;;;;;25.34;46.18;99726.92;104455;1308;60700;-83
2022/09/18 05:59:18;;;;;;;;;;;;;;;25.34;46.12;99729.13;104514;1309;61317;-85
2022/09/18 06:01:44;;;;;;;;;;;;;;;25.34;46.24;99724.58;104518;1309;61306;-85
2022/09/18 06:04:09;;;;;;;;;;;;;;;25.34;46.10;99722.44;104532;1308;61375;-83
2022/09/18 06:06:36;;;;;;;;;;;;;;;25.34;46.20;99729.98;104430;1309;61404;-83
2022/09/18 06:09:02;;;;;;;;;;;;;;;25.33;46.07;99724.63;104446;1308;61283;-84
2022/09/18 06:11:27;;;;;;;;;;;;;;;25.34;46.07;99722.77;104542;1308;61385;-84
2022/09/18 06:13:54;;;;;;;;;;;;;;;25.34;46.22;99716.80;104452;1308;61359;-84
2022/09/18 06:16:19;;;;;;;;;;;;;;;25.34;46.01;99727.67;104449;1310;60804;-84
2022/09/18 06:18:45;;;;;;;;;;;;;;;25.35;46.01;99715.29;104472;1310;61335;-84
2022/09/18 06:21:13;;;;;;;;;;;;;;;25.35;45.97;99713.63;104502;1309;61245;-82
2022/09/18 06:23:41;;;;;;;;;;;;;;;25.36;46.06;99722.42;104459;1311;61191;-84
2022/09/18 06:26:09;;;;;;;;;;;;;;;25.36;46.08;99728.15;104503;1309;73884;-85
2022/09/18 06:28:34;;;;;;;;;;;;;;;25.36;46.17;99723.40;104481;1309;75832;-85
2022/09/18 06:31:00;;;;;;;;;;;;;;;25.37;46.07;99718.48;104458;1309;61485;-84
2022/09/18 06:33:26;;;;;;;;;;;;;;;25.37;45.92;99716.62;104484;1309;61414;-83
2022/09/18 06:35:54;;;;;;;;;;;;;;;25.38;46.16;99716.50;104352;1311;61398;-83
2022/09/18 06:38:20;;;;;;;;;;;;;;;25.39;46.23;99712.64;104439;1311;61207;-81
2022/09/18 06:40:49;;;;;;;;;;;;;;;25.40;46.05;99727.52;104454;1311;62542;-84
2022/09/18 06:43:14;;;;;;;;;;;;;;;25.41;46.29;99741.30;104414;1311;61223;-83
2022/09/18 06:45:40;;;;;;;;;;;;;;;25.41;46.20;99750.05;104344;1311;61474;-83
2022/09/18 06:48:06;;;;;;;;;;;;;;;25.43;46.24;99750.09;104345;1311;61364;-83
2022/09/18 06:50:31;;;;;;;;;;;;;;;25.44;46.22;99747.30;104399;1311;61301;-83
2022/09/18 06:53:03;;;;;;;;;;;;;;;25.44;46.18;99743.34;104419;1311;61276;-83
2022/09/18 06:55:30;;;;;;;;;;;;;;;25.45;46.09;99746.11;104421;1311;73643;-85
2022/09/18 06:57:56;;;;;;;;;;;;;;;25.46;46.09;99745.85;104475;1311;75458;-84
2022/09/18 07:00:22;;;;;;;;;;;;;;;25.46;46.14;99738.63;104349;1311;61345;-84
2022/09/18 07:02:55;;;;;;;;;;;;;;;25.47;46.17;99747.34;104339;1311;61307;-83
2022/09/18 07:05:20;;;;;;;;;;;;;;;25.48;46.27;99749.42;104403;1311;74080;-83
2022/09/18 07:07:46;;;;;;;;;;;;;;;25.49;46.25;99748.42;104402;1311;61225;-83
2022/09/18 07:10:12;;;;;;;;;;;;;;;25.49;46.19;99751.30;104346;1311;61324;-82
2022/09/18 07:12:37;;;;;;;;;;;;;;;25.49;46.36;99750.35;104460;1311;61307;-84
2022/09/18 07:15:03;;;;;;;;;;;;;;;25.50;46.35;99747.41;104355;1311;61465;-83
2022/09/18 07:17:28;;;;;;;;;;;;;;;25.50;46.09;99754.36;104491;1311;61277;-84
2022/09/18 07:19:54;;;;;;;;;;;;;;;25.50;46.26;99755.95;104475;1311;61396;-85
2022/09/18 07:22:20;;;;;;;;;;;;;;;25.51;46.05;99765.45;104395;1311;61302;-84
2022/09/18 07:24:47;;;;;;;;;;;;;;;25.51;46.23;99768.35;104412;1310;61310;-83
2022/09/18 07:27:12;;;;;;;;;;;;;;;25.51;46.15;99763.50;104483;1311;61343;-82
2022/09/18 07:29:38;;;;;;;;;;;;;;;25.52;46.17;99754.78;104403;1311;61384;-82
2022/09/18 07:32:04;;;;;;;;;;;;;;;25.52;46.24;99748.27;104385;1311;61424;-83
2022/09/18 07:34:30;;;;;;;;;;;;;;;25.52;46.22;99749.65;104503;1311;61388;-84
2022/09/18 07:36:55;;;;;;;;;;;;;;;25.52;46.07;99756.30;104284;1311;61674;-83
2022/09/18 07:39:21;;;;;;;;;;;;;;;25.52;46.24;99751.77;104383;1311;61304;-83
2022/09/18 07:41:46;;;;;;;;;;;;;;;25.53;46.14;99760.20;104287;1311;61255;-85
2022/09/18 07:44:12;;;;;;;;;;;;;;;25.53;46.25;99762.15;104425;1311;61433;-84
2022/09/18 07:46:37;;;;;;;;;;;;;;;25.53;46.17;99762.52;104397;1311;61307;-83
2022/09/18 07:49:03;;;;;;;;;;;;;;;25.54;46.06;99772.52;104489;1311;61276;-83
2022/09/18 07:51:29;;;;;;;;;;;;;;;25.54;46.05;99777.88;104359;1311;61467;-83
2022/09/18 07:53:54;;;;;;;;;;;;;;;25.55;46.28;99778.95;104175;1311;61307;-84
2022/09/18 07:56:20;;;;;;;;;;;;;;;25.55;46.14;99783.98;104305;1311;61263;-83
2022/09/18 07:58:45;;;;;;;;;;;;;;;25.54;46.11;99785.47;104383;1311;61342;-83
2022/09/18 08:01:11;;;;;;;;;;;;;;;25.55;46.21;99784.65;104454;1311;61158;-83
2022/09/18 08:03:37;;;;;;;;;;;;;;;25.55;46.14;99788.45;104356;1311;59971;-84
2022/09/18 08:06:03;;;;;;;;;;;;;;;25.55;46.26;99788.44;104367;1311;61334;-84
2022/09/18 08:08:29;;;;;;;;;;;;;;;25.55;46.05;99800.48;104335;1313;61507;-81
2022/09/18 08:10:55;;;;;;;;;;;;;;;25.55;45.96;99793.48;104263;1313;61432;-84
2022/09/18 08:13:21;;;;;;;;;;;;;;;25.55;46.02;99794.15;104285;1314;61297;-83
2022/09/18 08:15:47;;;;;;;;;;;;;;;25.55;46.16;99796.38;104255;1311;61401;-84
2022/09/18 08:18:12;;;;;;;;;;;;;;;25.55;45.99;99794.02;104292;1314;61324;-83
2022/09/18 08:20:38;;;;;;;;;;;;;;;25.55;45.99;99786.10;104342;1311;61450;-83
2022/09/18 08:23:06;;;;;;;;;;;;;;;25.55;46.27;99794.75;104330;1311;61891;-84
2022/09/18 08:25:32;;;;;;;;;;;;;;;25.55;45.86;99799.11;104250;1314;72824;-84
2022/09/18 08:28:01;;;;;;;;;;;;;;;25.54;45.95;99801.84;104325;1314;61326;-85
2022/09/18 08:30:26;;;;;;;;;;;;;;;25.54;45.96;99804.40;104319;1314;61926;-83
2022/09/18 08:32:56;;;;;;;;;;;;;;;25.54;46.00;99805.15;104358;1311;61419;-83
2022/09/18 08:35:21;;;;;;;;;;;;;;;25.54;45.81;99802.21;104260;1313;73597;-82
2022/09/18 08:37:47;;;;;;;;;;;;;;;25.54;46.05;99799.55;104224;1314;61291;-83
2022/09/18 08:40:13;;;;;;;;;;;;;;;25.53;46.10;99788.23;104434;1311;61302;-83
2022/09/18 08:42:39;;;;;;;;;;;;;;;25.53;46.03;99790.27;104369;1311;61555;-83
2022/09/18 08:45:17;;;;;;;;;;;;;;;25.54;46.01;99783.73;104491;1311;61934;-83
2022/09/18 08:47:50;;;;;;;;;;;;;;;25.53;46.02;99785.23;104397;1311;74814;-84
2022/09/18 08:50:25;;;;;;;;;;;;;;;25.53;45.92;99796.91;104457;1311;61278;-82
2022/09/18 08:52:52;;;;;;;;;;;;;;;25.53;45.97;99805.08;104513;1310;61287;-82
2022/09/18 08:55:21;;;;;;;;;;;;;;;25.53;45.84;99802.75;104464;1311;73670;-84
2022/09/18 08:57:47;;;;;;;;;;;;;;;25.53;45.97;99795.69;104472;1311;74693;-83
2022/09/18 09:00:15;;;;;;;;;;;;;;;25.53;45.94;99799.11;104404;1311;61239;-82
2022/09/18 09:02:41;;;;;;;;;;;;;;;25.53;45.93;99804.54;104487;1310;61421;-84
2022/09/18 09:05:09;;;;;;;;;;;;;;;25.53;46.00;99811.23;104507;1311;61321;-83
2022/09/18 09:07:50;;;;;;;;;;;;;;;25.52;46.02;99812.71;104418;1311;75868;-84
2022/09/18 09:10:34;;;;;;;;;;;;;;;25.52;46.04;99816.83;104541;1311;62532;-84
2022/09/18 09:13:10;;;;;;;;;;;;;;;25.52;45.83;99817.94;104487;1311;61369;-82
2022/09/18 09:15:50;;;;;;;;;;;;;;;25.52;45.96;99817.06;104505;1308;72983;-84
2022/09/18 09:18:17;;;;;;;;;;;;;;;25.52;46.06;99821.91;104470;1308;74850;-82
2022/09/18 09:20:52;;;;;;;;;;;;;;;25.51;46.02;99814.80;104429;1308;61244;-83
2022/09/18 09:23:20;;;;;;;;;;;;;;;25.51;45.95;99810.98;104503;1311;61345;-80
2022/09/18 09:25:50;;;;;;;;;;;;;;;25.51;45.87;99819.70;104532;1308;72920;-83
2022/09/18 09:28:20;;;;;;;;;;;;;;;25.51;45.88;99831.22;104524;1308;74800;-84
2022/09/18 09:30:47;;;;;;;;;;;;;;;25.50;46.02;99834.30;104509;1310;61335;-83
2022/09/18 09:33:29;;;;;;;;;;;;;;;25.51;45.88;99835.74;104499;1308;61298;-83
2022/09/18 09:36:01;;;;;;;;;;;;;;;25.50;45.90;99836.11;104527;1308;73873;-84
2022/09/18 09:38:45;;;;;;;;;;;;;;;25.51;45.92;99837.36;104477;1309;75852;-83
2022/09/18 09:41:13;;;;;;;;;;;;;;;25.50;45.87;99848.04;104570;1308;61205;-86
2022/09/18 09:43:56;;;;;;;;;;;;;;;25.50;46.06;99859.41;104475;1311;61176;-84
2022/09/18 09:46:40;;;;;;;;;;;;;;;25.50;45.95;99851.85;104470;1308;73093;-85
2022/09/18 09:49:08;;;;;;;;;;;;;;;25.50;45.68;99858.67;104517;1308;76228;-84
2022/09/18 09:51:36;;;;;;;;;;;;;;;25.49;45.92;99870.46;104486;1311;61312;-84
2022/09/18 09:54:02;;;;;;;;;;;;;;;25.50;45.82;99870.27;104537;1308;62004;-83
2022/09/18 09:56:39;;;;;;;;;;;;;;;25.49;45.84;99870.26;104467;1308;61346;-84
2022/09/18 09:59:04;;;;;;;;;;;;;;;25.49;45.95;99880.96;104401;1308;75049;-83
2022/09/18 10:01:44;;;;;;;;;;;;;;;25.49;46.00;99877.86;103335;1308;1661928;-83
2022/09/18 10:04:29;;;;;;;;;;;;;;;25.49;45.90;99885.97;104488;1310;61507;-81
2022/09/18 10:07:01;;;;;;;;;;;;;;;25.49;45.93;99893.05;104550;1310;72647;-83
2022/09/18 10:09:32;;;;;;;;;;;;;;;25.49;45.91;99897.20;104517;1311;75211;-82
2022/09/18 10:12:01;;;;;;;;;;;;;;;25.49;45.90;99898.09;104520;1309;61159;-83
2022/09/18 10:14:27;;;;;;;;;;;;;;;25.49;45.97;99906.05;104570;1308;61253;-84
2022/09/18 10:16:53;;;;;;;;;;;;;;;25.49;45.82;99910.55;104552;1308;61377;-85
2022/09/18 10:19:19;;;;;;;;;;;;;;;25.49;45.96;99916.83;104486;1308;61309;-83
2022/09/18 10:21:45;;;;;;;;;;;;;;;25.48;45.90;99917.39;104512;1309;61426;-84
2022/09/18 10:24:28;;;;;;;;;;;;;;;25.48;45.87;99916.86;104386;1309;61299;-83
2022/09/18 10:26:58;;;;;;;;;;;;;;;25.48;45.94;99913.11;104463;1308;74558;-84
2022/09/18 10:29:24;;;;;;;;;;;;;;;25.48;45.89;99917.26;104508;1309;75596;-83
2022/09/18 10:32:16;;;;;;;;;;;;;;;25.48;45.75;99917.27;104547;1309;61303;-82
2022/09/18 10:34:48;;;;;;;;;;;;;;;25.48;45.80;99912.77;104164;1315;61149;-83
2022/09/18 10:37:16;;;;;;;;;;;;;;;25.48;45.79;99920.16;104097;1317;73830;-83
2022/09/18 10:39:50;;;;;;;;;;;;;;;25.47;45.73;99919.11;104169;1317;73812;-84
2022/09/18 10:42:18;;;;;;;;;;;;;;;25.47;45.74;99913.95;103751;1317;61406;-84
2022/09/18 10:44:54;;;;;;;;;;;;;;;25.47;45.74;99920.94;103834;1317;61975;-84
2022/09/18 10:47:20;;;;;;;;;;;;;;;25.47;45.76;99928.37;103809;1316;72846;-84
2022/09/18 10:50:21;;;;;;;;;;;;;;;25.47;45.57;99933.53;103936;1316;62520;-84
2022/09/18 10:52:47;;;;;;;;;;;;;;;25.47;45.77;99937.31;103003;1326;61622;-84
2022/09/18 10:55:22;;;;;;;;;;;;;;;25.47;45.62;99937.36;102751;1325;61420;-84
2022/09/18 10:57:49;;;;;;;;;;;;;;;25.48;45.60;99935.67;102756;1324;72043;-82
2022/09/18 11:00:40;;;;;;;;;;;;;;;25.47;45.59;99942.36;103000;1326;75904;-84
2022/09/18 11:03:12;;;;;;;;;;;;;;;25.47;45.47;99946.92;102546;1332;61360;-84
2022/09/18 11:05:38;;;;;;;;;;;;;;;25.47;45.71;99942.22;102541;1331;61275;-82
2022/09/18 11:08:04;;;;;;;;;;;;;;;25.47;45.51;99949.62;102509;1332;61264;-87
2022/09/18 11:10:31;;;;;;;;;;;;;;;25.47;45.54;99946.34;102530;1332;61437;-83
2022/09/18 11:12:58;;;;;;;;;;;;;;;25.47;45.54;99945.27;102738;1324;61311;-83
2022/09/18 11:15:26;;;;;;;;;;;;;;;25.47;45.51;99954.85;103010;1326;61332;-83
2022/09/18 11:17:52;;;;;;;;;;;;;;;25.46;45.50;99951.30;103013;1324;73622;-87
2022/09/18 11:20:23;;;;;;;;;;;;;;;25.47;45.42;99953.81;103004;1324;61198;-84
2022/09/18 11:22:49;;;;;;;;;;;;;;;25.47;45.36;99962.45;103020;1325;62945;-84
2022/09/18 11:25:21;;;;;;;;;;;;;;;25.46;45.33;99965.72;103010;1324;61366;-81
2022/09/18 11:27:50;;;;;;;;;;;;;;;25.46;45.40;99961.02;103835;1317;72825;-82
2022/09/18 11:30:19;;;;;;;;;;;;;;;25.46;45.54;99954.73;104001;1317;75627;-82
2022/09/18 11:32:45;;;;;;;;;;;;;;;25.46;45.60;99963.55;104030;1316;61202;-83
2022/09/18 11:35:17;;;;;;;;;;;;;;;25.46;45.51;99961.19;104024;1317;61218;-85
2022/09/18 11:37:47;;;;;;;;;;;;;;;25.47;45.43;99960.66;103895;1317;73808;-85
2022/09/18 11:40:15;;;;;;;;;;;;;;;25.46;45.49;99965.71;104183;1309;74249;-83
2022/09/18 11:42:42;;;;;;;;;;;;;;;25.47;45.32;99967.30;104495;1308;61491;-84
2022/09/18 11:45:27;;;;;;;;;;;;;;;25.47;45.32;99971.77;104507;1309;61437;-83
2022/09/18 11:48:03;;;;;;;;;;;;;;;25.47;45.30;99973.20;104445;1308;73784;-84
2022/09/18 11:50:29;;;;;;;;;;;;;;;25.47;45.39;99978.45;104655;1308;74689;-85
2022/09/18 11:52:57;;;;;;;;;;;;;;;25.48;45.42;99981.63;104632;1309;61289;-82
2022/09/18 11:55:27;;;;;;;;;;;;;;;25.47;45.20;99981.13;104528;1309;61173;-83
2022/09/18 11:58:03;;;;;;;;;;;;;;;25.48;45.25;99983.40;104517;1309;73715;-83
2022/09/18 12:00:35;;;;;;;;;;;;;;;25.48;45.37;99980.85;104538;1308;75617;-83
2022/09/18 12:03:21;;;;;;;;;;;;;;;25.48;45.38;99975.64;104640;1309;61188;-84
2022/09/18 12:06:13;;;;;;;;;;;;;;;25.48;45.27;99975.83;104627;1309;61128;-84
2022/09/18 12:08:48;;;;;;;;;;;;;;;25.48;45.18;99984.45;104575;1308;73484;-84
2022/09/18 12:11:35;;;;;;;;;;;;;;;25.48;45.20;99982.11;104618;1309;73920;-83
2022/09/18 12:14:08;;;;;;;;;;;;;;;25.48;45.12;99985.67;104538;1308;61048;-83
2022/09/18 12:17:00;;;;;;;;;;;;;;;25.48;45.12;99979.00;104534;1308;61257;-83
2022/09/18 12:19:30;;;;;;;;;;;;;;;25.49;45.05;99981.51;104348;1309;71588;-84
2022/09/18 12:21:56;;;;;;;;;;;;;;;25.50;44.99;99988.61;104512;1308;75109;-82
2022/09/18 12:24:21;;;;;;;;;;;;;;;25.49;44.98;99984.52;104549;1309;61394;-83
2022/09/18 12:27:06;;;;;;;;;;;;;;;25.49;45.00;99991.52;104627;1309;61288;-83
2022/09/18 12:29:37;;;;;;;;;;;;;;;25.50;44.97;99988.23;104445;1308;72779;-82
2022/09/18 12:32:07;;;;;;;;;;;;;;;25.49;45.03;99987.02;104626;1309;73909;-83
2022/09/18 12:34:40;;;;;;;;;;;;;;;25.50;44.87;99991.28;104474;1311;61430;-83
2022/09/18 12:37:15;;;;;;;;;;;;;;;25.50;44.81;99984.83;104530;1308;61208;-84
2022/09/18 12:39:47;;;;;;;;;;;;;;;25.50;44.97;99996.34;104624;1309;72885;-83
2022/09/18 12:42:17;;;;;;;;;;;;;;;25.50;44.82;99998.27;104630;1309;75828;-81
2022/09/18 12:44:55;;;;;;;;;;;;;;;25.50;44.59;100001.88;104419;1311;61386;-81